sensor_id;sensor_type;location;lat;lon;timestamp;temperature;humidity
44121;DHT22;29783;52.504;13.478;2023-06-14T09:27:37;22.30;49.40
44121;DHT22;29783;52.504;13.478;2023-06-14T09:30:06;22.20;49.30
44121;DHT22;29783;52.504;13.478;2023-06-14T09:32:37;22.10;50.00
44121;DHT22;29783;52.504;13.478;2023-06-14T09:35:04;22.20;49.60
44121;DHT22;29783;52.504;13.478;2023-06-14T09:37:31;22.10;50.20
44121;DHT22;29783;52.504;13.478;2023-06-14T09:42:24;22.50;49.50
44121;DHT22;29783;52.504;13.478;2023-06-14T09:44:55;22.70;48.30
44121;DHT22;29783;52.504;13.478;2023-06-14T09:47:22;22.90;48.40
44121;DHT22;29783;52.504;13.478;2023-06-14T09:49:49;23.10;48.20
44121;DHT22;29783;52.504;13.478;2023-06-14T09:52:17;23.40;47.80
44121;DHT22;29783;52.504;13.478;2023-06-14T09:54:46;23.50;46.30
44121;DHT22;29783;52.504;13.478;2023-06-14T09:57:14;23.50;46.60
44121;DHT22;29783;52.504;13.478;2023-06-14T09:59:46;23.20;46.50
44121;DHT22;29783;52.504;13.478;2023-06-14T10:04:55;23.10;47.00
44121;DHT22;29783;52.504;13.478;2023-06-14T10:07:23;22.90;47.70
44121;DHT22;29783;52.504;13.478;2023-06-14T10:09:49;23.00;47.30
44121;DHT22;29783;52.504;13.478;2023-06-14T10:12:18;22.70;47.70
44121;DHT22;29783;52.504;13.478;2023-06-14T10:14:48;22.80;48.20
44121;DHT22;29783;52.504;13.478;2023-06-14T10:17:22;22.90;48.40
44121;DHT22;29783;52.504;13.478;2023-06-14T10:23:10;23.00;47.70
44121;DHT22;29783;52.504;13.478;2023-06-14T10:25:37;23.00;47.80
44121;DHT22;29783;52.504;13.478;2023-06-14T10:28:23;23.20;46.80
44121;DHT22;29783;52.504;13.478;2023-06-14T10:31:05;23.30;46.80
44121;DHT22;29783;52.504;13.478;2023-06-14T10:33:33;23.00;47.10
44121;DHT22;29783;52.504;13.478;2023-06-14T10:36:25;22.70;47.60
44121;DHT22;29783;52.504;13.478;2023-06-14T10:41:30;22.70;47.80
44121;DHT22;29783;52.504;13.478;2023-06-14T10:46:40;22.70;47.80
44121;DHT22;29783;52.504;13.478;2023-06-14T10:49:06;22.80;47.80
44121;DHT22;29783;52.504;13.478;2023-06-14T10:51:42;22.80;47.60
44121;DHT22;29783;52.504;13.478;2023-06-14T10:54:15;22.90;47.70
44121;DHT22;29783;52.504;13.478;2023-06-14T10:56:52;23.20;46.70
44121;DHT22;29783;52.504;13.478;2023-06-14T10:59:18;23.70;46.20
44121;DHT22;29783;52.504;13.478;2023-06-14T11:04:30;23.80;44.90
44121;DHT22;29783;52.504;13.478;2023-06-14T11:10:38;23.80;44.60
44121;DHT22;29783;52.504;13.478;2023-06-14T11:13:04;23.80;45.00
44121;DHT22;29783;52.504;13.478;2023-06-14T11:15:35;24.10;44.40
44121;DHT22;29783;52.504;13.478;2023-06-14T11:18:02;24.10;44.50
44121;DHT22;29783;52.504;13.478;2023-06-14T11:20:30;24.20;44.70
44121;DHT22;29783;52.504;13.478;2023-06-14T11:22:56;24.20;44.30
44121;DHT22;29783;52.504;13.478;2023-06-14T11:25:22;24.40;44.00
44121;DHT22;29783;52.504;13.478;2023-06-14T11:27:51;24.50;44.10
44121;DHT22;29783;52.504;13.478;2023-06-14T11:30:18;24.80;43.30
44121;DHT22;29783;52.504;13.478;2023-06-14T11:32:47;25.20;42.50
44121;DHT22;29783;52.504;13.478;2023-06-14T11:35:13;25.50;41.30
44121;DHT22;29783;52.504;13.478;2023-06-14T11:37:39;25.20;42.40
44121;DHT22;29783;52.504;13.478;2023-06-14T11:40:08;25.20;41.10
44121;DHT22;29783;52.504;13.478;2023-06-14T11:42:35;25.40;40.90
44121;DHT22;29783;52.504;13.478;2023-06-14T11:45:01;25.40;41.10
44121;DHT22;29783;52.504;13.478;2023-06-14T11:47:32;25.50;40.50
44121;DHT22;29783;52.504;13.478;2023-06-14T11:49:59;25.40;40.10
44121;DHT22;29783;52.504;13.478;2023-06-14T11:52:25;25.30;40.70
44121;DHT22;29783;52.504;13.478;2023-06-14T11:54:51;25.50;40.00
44121;DHT22;29783;52.504;13.478;2023-06-14T11:57:18;25.60;38.60
44121;DHT22;29783;52.504;13.478;2023-06-14T11:59:44;25.30;38.80
44121;DHT22;29783;52.504;13.478;2023-06-14T12:02:14;25.20;40.00
44121;DHT22;29783;52.504;13.478;2023-06-14T12:04:43;25.30;38.90
44121;DHT22;29783;52.504;13.478;2023-06-14T12:07:10;25.30;39.60
44121;DHT22;29783;52.504;13.478;2023-06-14T12:12:24;27.00;36.70
44121;DHT22;29783;52.504;13.478;2023-06-14T12:14:54;27.60;36.20
44121;DHT22;29783;52.504;13.478;2023-06-14T12:17:22;27.90;35.20
44121;DHT22;29783;52.504;13.478;2023-06-14T12:19:49;28.40;34.40
44121;DHT22;29783;52.504;13.478;2023-06-14T12:22:15;29.10;33.20
44121;DHT22;29783;52.504;13.478;2023-06-14T12:24:45;30.20;31.70
44121;DHT22;29783;52.504;13.478;2023-06-14T12:27:10;30.60;29.90
44121;DHT22;29783;52.504;13.478;2023-06-14T12:29:41;30.10;31.00
44121;DHT22;29783;52.504;13.478;2023-06-14T12:32:09;30.90;29.80
44121;DHT22;29783;52.504;13.478;2023-06-14T12:34:35;31.60;29.00
44121;DHT22;29783;52.504;13.478;2023-06-14T12:37:01;32.30;27.80
44121;DHT22;29783;52.504;13.478;2023-06-14T12:39:26;32.50;27.40
44121;DHT22;29783;52.504;13.478;2023-06-14T12:41:53;32.80;26.70
44121;DHT22;29783;52.504;13.478;2023-06-14T12:44:19;32.40;26.60
44121;DHT22;29783;52.504;13.478;2023-06-14T12:46:45;33.20;26.00
44121;DHT22;29783;52.504;13.478;2023-06-14T12:49:11;33.30;25.70
44121;DHT22;29783;52.504;13.478;2023-06-14T12:51:38;33.40;25.40
44121;DHT22;29783;52.504;13.478;2023-06-14T12:54:04;31.60;27.20
44121;DHT22;29783;52.504;13.478;2023-06-14T12:56:30;31.40;27.50
44121;DHT22;29783;52.504;13.478;2023-06-14T12:58:55;31.20;27.80
44121;DHT22;29783;52.504;13.478;2023-06-14T13:01:21;30.80;27.90
44121;DHT22;29783;52.504;13.478;2023-06-14T13:03:47;30.90;27.30
44121;DHT22;29783;52.504;13.478;2023-06-14T13:06:13;30.90;27.30
44121;DHT22;29783;52.504;13.478;2023-06-14T13:08:39;31.20;27.40
44121;DHT22;29783;52.504;13.478;2023-06-14T13:11:05;32.60;25.40
44121;DHT22;29783;52.504;13.478;2023-06-14T13:13:30;32.60;26.00
44121;DHT22;29783;52.504;13.478;2023-06-14T13:15:56;31.80;26.60
44121;DHT22;29783;52.504;13.478;2023-06-14T13:18:21;32.10;26.40
44121;DHT22;29783;52.504;13.478;2023-06-14T13:20:47;31.70;26.80
44121;DHT22;29783;52.504;13.478;2023-06-14T13:23:13;31.20;27.70
44121;DHT22;29783;52.504;13.478;2023-06-14T13:25:40;31.70;26.60
44121;DHT22;29783;52.504;13.478;2023-06-14T13:28:06;33.70;24.60
44121;DHT22;29783;52.504;13.478;2023-06-14T13:30:33;34.00;24.50
44121;DHT22;29783;52.504;13.478;2023-06-14T13:32:59;33.40;24.80
44121;DHT22;29783;52.504;13.478;2023-06-14T13:35:25;32.00;25.90
44121;DHT22;29783;52.504;13.478;2023-06-14T13:37:51;33.50;24.10
44121;DHT22;29783;52.504;13.478;2023-06-14T13:40:17;33.40;24.80
44121;DHT22;29783;52.504;13.478;2023-06-14T13:42:42;33.30;24.20
44121;DHT22;29783;52.504;13.478;2023-06-14T13:45:09;31.80;26.10
44121;DHT22;29783;52.504;13.478;2023-06-14T13:47:35;30.70;27.50
44121;DHT22;29783;52.504;13.478;2023-06-14T13:50:01;30.70;27.40
44121;DHT22;29783;52.504;13.478;2023-06-14T13:52:27;30.20;28.10
44121;DHT22;29783;52.504;13.478;2023-06-14T13:54:53;31.00;27.60
44121;DHT22;29783;52.504;13.478;2023-06-14T13:57:19;31.00;27.70
44121;DHT22;29783;52.504;13.478;2023-06-14T13:59:45;30.50;28.30
44121;DHT22;29783;52.504;13.478;2023-06-14T14:02:11;30.20;28.50
44121;DHT22;29783;52.504;13.478;2023-06-14T14:04:37;31.00;27.70
44121;DHT22;29783;52.504;13.478;2023-06-14T14:07:04;31.20;28.00
44121;DHT22;29783;52.504;13.478;2023-06-14T14:09:33;31.10;28.30
44121;DHT22;29783;52.504;13.478;2023-06-14T14:12:00;30.20;28.20
44121;DHT22;29783;52.504;13.478;2023-06-14T14:14:27;29.50;29.10
44121;DHT22;29783;52.504;13.478;2023-06-14T14:16:52;28.80;30.30
44121;DHT22;29783;52.504;13.478;2023-06-14T14:19:20;28.70;30.40
44121;DHT22;29783;52.504;13.478;2023-06-14T14:21:47;28.90;30.30
44121;DHT22;29783;52.504;13.478;2023-06-14T14:24:13;30.70;28.40
44121;DHT22;29783;52.504;13.478;2023-06-14T14:26:39;31.90;26.60
44121;DHT22;29783;52.504;13.478;2023-06-14T14:29:04;31.90;26.90
44121;DHT22;29783;52.504;13.478;2023-06-14T14:31:30;32.10;26.20
44121;DHT22;29783;52.504;13.478;2023-06-14T14:33:56;31.80;26.00
44121;DHT22;29783;52.504;13.478;2023-06-14T14:36:21;31.20;26.20
44121;DHT22;29783;52.504;13.478;2023-06-14T14:38:47;31.00;26.70
44121;DHT22;29783;52.504;13.478;2023-06-14T14:41:13;31.30;26.20
44121;DHT22;29783;52.504;13.478;2023-06-14T14:43:39;32.80;24.50
44121;DHT22;29783;52.504;13.478;2023-06-14T14:46:05;33.10;24.30
44121;DHT22;29783;52.504;13.478;2023-06-14T14:48:31;32.50;24.80
44121;DHT22;29783;52.504;13.478;2023-06-14T14:50:57;31.90;25.20
44121;DHT22;29783;52.504;13.478;2023-06-14T14:53:22;30.60;26.30
44121;DHT22;29783;52.504;13.478;2023-06-14T14:55:48;29.50;27.60
44121;DHT22;29783;52.504;13.478;2023-06-14T14:58:14;28.90;28.30
44121;DHT22;29783;52.504;13.478;2023-06-14T15:00:46;28.30;29.10
44121;DHT22;29783;52.504;13.478;2023-06-14T15:03:12;27.60;30.20
44121;DHT22;29783;52.504;13.478;2023-06-14T15:05:38;26.90;31.10
44121;DHT22;29783;52.504;13.478;2023-06-14T15:08:04;26.40;32.40
44121;DHT22;29783;52.504;13.478;2023-06-14T15:10:35;26.20;32.80
44121;DHT22;29783;52.504;13.478;2023-06-14T15:13:01;25.60;34.10
44121;DHT22;29783;52.504;13.478;2023-06-14T15:15:26;25.20;34.90
44121;DHT22;29783;52.504;13.478;2023-06-14T15:17:52;25.10;35.30
44121;DHT22;29783;52.504;13.478;2023-06-14T15:20:18;24.80;35.60
44121;DHT22;29783;52.504;13.478;2023-06-14T15:22:43;24.60;36.10
44121;DHT22;29783;52.504;13.478;2023-06-14T15:25:10;24.60;36.30
44121;DHT22;29783;52.504;13.478;2023-06-14T15:27:36;24.50;36.50
44121;DHT22;29783;52.504;13.478;2023-06-14T15:30:02;24.50;36.90
44121;DHT22;29783;52.504;13.478;2023-06-14T15:32:28;24.30;36.70
44121;DHT22;29783;52.504;13.478;2023-06-14T15:34:54;24.30;36.70
44121;DHT22;29783;52.504;13.478;2023-06-14T15:37:19;24.50;36.70
44121;DHT22;29783;52.504;13.478;2023-06-14T15:39:45;24.60;36.20
44121;DHT22;29783;52.504;13.478;2023-06-14T15:42:11;24.80;35.80
44121;DHT22;29783;52.504;13.478;2023-06-14T15:44:37;25.20;35.90
44121;DHT22;29783;52.504;13.478;2023-06-14T15:47:03;25.30;35.50
44121;DHT22;29783;52.504;13.478;2023-06-14T15:49:28;25.40;35.50
44121;DHT22;29783;52.504;13.478;2023-06-14T15:51:55;25.40;34.80
44121;DHT22;29783;52.504;13.478;2023-06-14T15:54:20;24.90;35.80
44121;DHT22;29783;52.504;13.478;2023-06-14T15:56:46;24.60;36.20
44121;DHT22;29783;52.504;13.478;2023-06-14T15:59:11;24.20;37.00
44121;DHT22;29783;52.504;13.478;2023-06-14T16:01:37;24.10;37.60
44121;DHT22;29783;52.504;13.478;2023-06-14T16:04:03;24.10;37.90
44121;DHT22;29783;52.504;13.478;2023-06-14T16:06:29;24.00;38.10
44121;DHT22;29783;52.504;13.478;2023-06-14T16:08:54;23.90;38.40
44121;DHT22;29783;52.504;13.478;2023-06-14T16:11:20;23.70;38.90
44121;DHT22;29783;52.504;13.478;2023-06-14T16:13:45;23.80;38.80
44121;DHT22;29783;52.504;13.478;2023-06-14T16:16:11;23.70;38.50
44121;DHT22;29783;52.504;13.478;2023-06-14T16:18:37;23.70;38.60
44121;DHT22;29783;52.504;13.478;2023-06-14T16:21:03;23.60;38.70
44121;DHT22;29783;52.504;13.478;2023-06-14T16:23:34;23.70;38.70
44121;DHT22;29783;52.504;13.478;2023-06-14T16:26:00;23.60;38.90
44121;DHT22;29783;52.504;13.478;2023-06-14T16:28:25;23.50;39.00
44121;DHT22;29783;52.504;13.478;2023-06-14T16:30:51;23.40;39.30
44121;DHT22;29783;52.504;13.478;2023-06-14T16:33:16;23.30;39.20
44121;DHT22;29783;52.504;13.478;2023-06-14T16:35:42;23.20;39.40
44121;DHT22;29783;52.504;13.478;2023-06-14T16:38:08;23.20;39.50
44121;DHT22;29783;52.504;13.478;2023-06-14T16:40:33;23.20;39.50
44121;DHT22;29783;52.504;13.478;2023-06-14T16:42:59;23.20;39.40
44121;DHT22;29783;52.504;13.478;2023-06-14T16:45:24;23.20;39.50
44121;DHT22;29783;52.504;13.478;2023-06-14T16:47:50;23.30;39.40
44121;DHT22;29783;52.504;13.478;2023-06-14T16:50:16;23.30;39.50
44121;DHT22;29783;52.504;13.478;2023-06-14T16:52:41;23.40;39.60
44121;DHT22;29783;52.504;13.478;2023-06-14T16:55:08;23.20;39.80
44121;DHT22;29783;52.504;13.478;2023-06-14T16:57:34;23.00;40.20
44121;DHT22;29783;52.504;13.478;2023-06-14T17:00:00;22.90;40.50
44121;DHT22;29783;52.504;13.478;2023-06-14T17:02:25;22.70;41.00
44121;DHT22;29783;52.504;13.478;2023-06-14T17:04:51;22.60;41.20
44121;DHT22;29783;52.504;13.478;2023-06-14T17:07:17;22.60;41.40
44121;DHT22;29783;52.504;13.478;2023-06-14T17:09:42;22.40;41.60
44121;DHT22;29783;52.504;13.478;2023-06-14T17:12:08;22.30;41.70
44121;DHT22;29783;52.504;13.478;2023-06-14T17:14:34;22.20;42.00
44121;DHT22;29783;52.504;13.478;2023-06-14T17:16:59;22.20;42.10
44121;DHT22;29783;52.504;13.478;2023-06-14T17:19:26;22.20;42.10
44121;DHT22;29783;52.504;13.478;2023-06-14T17:21:52;22.10;42.40
44121;DHT22;29783;52.504;13.478;2023-06-14T17:24:19;22.10;42.30
44121;DHT22;29783;52.504;13.478;2023-06-14T17:26:44;22.00;42.50
44121;DHT22;29783;52.504;13.478;2023-06-14T17:29:10;22.00;42.60
44121;DHT22;29783;52.504;13.478;2023-06-14T17:31:36;22.00;42.60
44121;DHT22;29783;52.504;13.478;2023-06-14T17:34:02;21.90;42.80
44121;DHT22;29783;52.504;13.478;2023-06-14T17:36:28;21.80;42.80
44121;DHT22;29783;52.504;13.478;2023-06-14T17:38:54;21.80;43.10
44121;DHT22;29783;52.504;13.478;2023-06-14T17:41:19;21.80;43.30
44121;DHT22;29783;52.504;13.478;2023-06-14T17:43:47;21.80;43.20
44121;DHT22;29783;52.504;13.478;2023-06-14T17:46:13;21.80;43.20
44121;DHT22;29783;52.504;13.478;2023-06-14T17:48:40;21.80;43.30
44121;DHT22;29783;52.504;13.478;2023-06-14T17:51:06;21.80;43.50
44121;DHT22;29783;52.504;13.478;2023-06-14T17:53:32;21.70;43.50
44121;DHT22;29783;52.504;13.478;2023-06-14T17:55:59;21.70;43.70
44121;DHT22;29783;52.504;13.478;2023-06-14T17:58:25;21.70;43.70
44121;DHT22;29783;52.504;13.478;2023-06-14T18:00:51;21.70;43.80
44121;DHT22;29783;52.504;13.478;2023-06-14T18:03:17;21.70;44.00
44121;DHT22;29783;52.504;13.478;2023-06-14T18:05:43;21.60;44.20
44121;DHT22;29783;52.504;13.478;2023-06-14T18:08:10;21.60;44.40
44121;DHT22;29783;52.504;13.478;2023-06-14T18:10:36;21.60;44.60
44121;DHT22;29783;52.504;13.478;2023-06-14T18:13:02;21.50;44.50
44121;DHT22;29783;52.504;13.478;2023-06-14T18:15:28;21.50;44.60
44121;DHT22;29783;52.504;13.478;2023-06-14T18:17:54;21.50;44.60
44121;DHT22;29783;52.504;13.478;2023-06-14T18:20:21;21.40;44.70
44121;DHT22;29783;52.504;13.478;2023-06-14T18:22:47;21.40;44.80
44121;DHT22;29783;52.504;13.478;2023-06-14T18:25:13;21.40;44.80
44121;DHT22;29783;52.504;13.478;2023-06-14T18:27:44;21.40;44.70
44121;DHT22;29783;52.504;13.478;2023-06-14T18:30:11;21.40;45.00
44121;DHT22;29783;52.504;13.478;2023-06-14T18:32:36;21.30;44.90
44121;DHT22;29783;52.504;13.478;2023-06-14T18:35:03;21.30;45.10
44121;DHT22;29783;52.504;13.478;2023-06-14T18:37:28;21.30;45.00
44121;DHT22;29783;52.504;13.478;2023-06-14T18:39:54;21.30;45.10
44121;DHT22;29783;52.504;13.478;2023-06-14T18:42:20;21.20;45.00
44121;DHT22;29783;52.504;13.478;2023-06-14T18:44:49;21.20;45.10
44121;DHT22;29783;52.504;13.478;2023-06-14T18:47:15;21.20;45.10
44121;DHT22;29783;52.504;13.478;2023-06-14T18:49:41;21.20;45.30
44121;DHT22;29783;52.504;13.478;2023-06-14T18:52:08;21.10;45.40
44121;DHT22;29783;52.504;13.478;2023-06-14T18:54:33;21.10;45.40
44121;DHT22;29783;52.504;13.478;2023-06-14T18:56:59;21.10;45.70
44121;DHT22;29783;52.504;13.478;2023-06-14T18:59:25;21.00;45.80
44121;DHT22;29783;52.504;13.478;2023-06-14T19:01:51;21.00;46.00
44121;DHT22;29783;52.504;13.478;2023-06-14T19:04:16;21.00;46.10
44121;DHT22;29783;52.504;13.478;2023-06-14T19:06:42;21.00;46.20
44121;DHT22;29783;52.504;13.478;2023-06-14T19:09:08;20.90;46.30
44121;DHT22;29783;52.504;13.478;2023-06-14T19:11:33;20.90;46.60
44121;DHT22;29783;52.504;13.478;2023-06-14T19:13:59;20.90;46.60
44121;DHT22;29783;52.504;13.478;2023-06-14T19:16:25;20.80;46.70
44121;DHT22;29783;52.504;13.478;2023-06-14T19:18:50;20.80;46.70
44121;DHT22;29783;52.504;13.478;2023-06-14T19:21:16;20.80;46.90
44121;DHT22;29783;52.504;13.478;2023-06-14T19:23:42;20.70;47.10
44121;DHT22;29783;52.504;13.478;2023-06-14T19:26:09;20.70;47.30
44121;DHT22;29783;52.504;13.478;2023-06-14T19:28:35;20.70;47.30
44121;DHT22;29783;52.504;13.478;2023-06-14T19:31:01;20.60;47.40
44121;DHT22;29783;52.504;13.478;2023-06-14T19:33:26;20.60;47.60
44121;DHT22;29783;52.504;13.478;2023-06-14T19:35:52;20.60;47.70
44121;DHT22;29783;52.504;13.478;2023-06-14T19:38:18;20.60;47.90
44121;DHT22;29783;52.504;13.478;2023-06-14T19:40:44;20.50;48.10
44121;DHT22;29783;52.504;13.478;2023-06-14T19:43:10;20.50;48.10
44121;DHT22;29783;52.504;13.478;2023-06-14T19:45:36;20.50;48.30
44121;DHT22;29783;52.504;13.478;2023-06-14T19:48:02;20.40;48.50
44121;DHT22;29783;52.504;13.478;2023-06-14T19:50:27;20.40;48.70
44121;DHT22;29783;52.504;13.478;2023-06-14T19:52:53;20.40;48.90
44121;DHT22;29783;52.504;13.478;2023-06-14T19:55:19;20.40;48.80
44121;DHT22;29783;52.504;13.478;2023-06-14T19:57:44;20.30;49.00
44121;DHT22;29783;52.504;13.478;2023-06-14T20:00:10;20.30;49.10
44121;DHT22;29783;52.504;13.478;2023-06-14T20:02:38;20.20;49.30
44121;DHT22;29783;52.504;13.478;2023-06-14T20:05:03;20.20;49.40
44121;DHT22;29783;52.504;13.478;2023-06-14T20:07:29;20.20;49.60
44121;DHT22;29783;52.504;13.478;2023-06-14T20:09:56;20.20;49.40
44121;DHT22;29783;52.504;13.478;2023-06-14T20:12:22;20.20;49.50
44121;DHT22;29783;52.504;13.478;2023-06-14T20:14:49;20.20;49.50
44121;DHT22;29783;52.504;13.478;2023-06-14T20:17:16;20.20;49.50
44121;DHT22;29783;52.504;13.478;2023-06-14T20:19:45;20.10;49.60
44121;DHT22;29783;52.504;13.478;2023-06-14T20:22:13;20.10;49.70
44121;DHT22;29783;52.504;13.478;2023-06-14T20:24:38;20.00;49.90
44121;DHT22;29783;52.504;13.478;2023-06-14T20:27:04;20.00;50.00
44121;DHT22;29783;52.504;13.478;2023-06-14T20:29:31;20.00;50.00
44121;DHT22;29783;52.504;13.478;2023-06-14T20:31:56;20.00;49.80
44121;DHT22;29783;52.504;13.478;2023-06-14T20:34:22;20.00;49.90
44121;DHT22;29783;52.504;13.478;2023-06-14T20:36:47;20.00;50.10
44121;DHT22;29783;52.504;13.478;2023-06-14T20:39:13;20.00;50.20
44121;DHT22;29783;52.504;13.478;2023-06-14T20:41:39;20.00;50.10
44121;DHT22;29783;52.504;13.478;2023-06-14T20:44:05;20.00;50.10
44121;DHT22;29783;52.504;13.478;2023-06-14T23:38:19;17.40;59.40
44121;DHT22;29783;52.504;13.478;2023-06-14T23:40:45;17.40;59.30
44121;DHT22;29783;52.504;13.478;2023-06-14T23:43:14;17.30;59.70
